createdAt,value
2018-03-03T00:01:21.178Z,95730
2018-03-03T00:03:49.508Z,95736
2018-03-03T00:06:17.902Z,95734
2018-03-03T00:08:46.271Z,95738
2018-03-03T00:11:14.593Z,95737
2018-03-03T00:13:42.946Z,95743
2018-03-03T00:16:11.260Z,95744
2018-03-03T00:18:39.621Z,95749
2018-03-03T00:21:08.019Z,95756
2018-03-03T00:23:36.349Z,95754
2018-03-03T00:26:04.682Z,95752
2018-03-03T00:28:33.002Z,95755
2018-03-03T00:31:01.292Z,95759
2018-03-03T00:33:29.645Z,95770
2018-03-03T00:35:57.986Z,95764
2018-03-03T00:38:26.313Z,95768
2018-03-03T00:40:54.634Z,95768
2018-03-03T00:43:22.962Z,95770
2018-03-03T00:45:51.300Z,95772
2018-03-03T00:48:19.642Z,95777
2018-03-03T00:50:47.969Z,95771
2018-03-03T00:53:16.297Z,95773
2018-03-03T00:55:44.623Z,95771
2018-03-03T00:58:12.954Z,95769
2018-03-03T01:00:41.282Z,95768
2018-03-03T01:03:09.614Z,95773
2018-03-03T01:05:37.914Z,95770
2018-03-03T01:08:06.386Z,95776
2018-03-03T01:10:34.747Z,95772
2018-03-03T01:13:03.070Z,95769
2018-03-03T01:15:31.451Z,95774
2018-03-03T01:17:59.787Z,95777
2018-03-03T01:20:28.105Z,95777
2018-03-03T01:22:56.457Z,95777
2018-03-03T01:25:24.782Z,95787
2018-03-03T01:27:53.241Z,95791
2018-03-03T01:30:21.582Z,95793
2018-03-03T01:32:49.914Z,95795
2018-03-03T01:35:18.257Z,95797
2018-03-03T01:37:46.568Z,95793
2018-03-03T01:40:14.893Z,95796
2018-03-03T01:42:43.203Z,95801
2018-03-03T01:45:11.505Z,95806
2018-03-03T01:47:39.848Z,95801
2018-03-03T01:50:08.187Z,95802
2018-03-03T01:52:36.502Z,95803
2018-03-03T01:55:04.837Z,95803
2018-03-03T01:57:33.173Z,95804
2018-03-03T02:00:01.500Z,95802
2018-03-03T02:02:29.823Z,95800
2018-03-03T02:04:58.139Z,95807
2018-03-03T02:07:26.490Z,95808
2018-03-03T02:09:54.810Z,95808
2018-03-03T02:12:23.211Z,95811
2018-03-03T02:14:51.539Z,95812
2018-03-03T02:17:19.933Z,95809
2018-03-03T02:19:48.257Z,95818
2018-03-03T02:22:16.566Z,95813
2018-03-03T02:24:44.898Z,95814
2018-03-03T02:27:13.253Z,95816
2018-03-03T02:29:41.586Z,95821
2018-03-03T02:32:09.936Z,95824
2018-03-03T02:34:38.267Z,95814
2018-03-03T02:37:06.577Z,95815
2018-03-03T02:39:34.951Z,95817
2018-03-03T02:42:03.290Z,95820
2018-03-03T02:44:31.630Z,95828
2018-03-03T02:46:59.980Z,95828
2018-03-03T02:49:28.303Z,95828
2018-03-03T02:51:56.643Z,95827
2018-03-03T02:54:24.964Z,95830
2018-03-03T02:56:53.327Z,95829
2018-03-03T02:59:21.640Z,95823
2018-03-03T03:01:49.948Z,95830
2018-03-03T03:04:18.263Z,95833
2018-03-03T03:06:46.619Z,95828
2018-03-03T03:09:14.947Z,95833
2018-03-03T03:11:43.297Z,95829
2018-03-03T03:14:11.590Z,95830
2018-03-03T03:16:39.946Z,95835
2018-03-03T03:19:08.250Z,95837
2018-03-03T03:21:36.703Z,95832
2018-03-03T03:24:05.061Z,95841
2018-03-03T03:26:33.923Z,95835
2018-03-03T03:29:02.275Z,95834
2018-03-03T03:31:30.585Z,95837
2018-03-03T03:33:58.912Z,95832
2018-03-03T03:36:27.230Z,95830
2018-03-03T03:38:55.630Z,95830
2018-03-03T03:41:23.995Z,95829
2018-03-03T03:43:52.342Z,95824
2018-03-03T03:46:20.695Z,95827
2018-03-03T03:48:49.023Z,95822
2018-03-03T03:51:17.373Z,95833
2018-03-03T03:53:45.750Z,95830
2018-03-03T03:56:14.071Z,95837
2018-03-03T03:58:42.376Z,95839
2018-03-03T04:01:10.687Z,95840
2018-03-03T04:03:38.999Z,95837
2018-03-03T04:06:07.320Z,95832
2018-03-03T04:08:35.671Z,95831
2018-03-03T04:11:03.989Z,95827
2018-03-03T04:13:32.312Z,95830
2018-03-03T04:16:00.659Z,95832
2018-03-03T04:18:28.998Z,95830
2018-03-03T04:20:57.315Z,95822
2018-03-03T04:23:25.647Z,95818
2018-03-03T04:25:54.010Z,95823
2018-03-03T04:28:22.377Z,95816
2018-03-03T04:30:50.750Z,95816
2018-03-03T04:33:19.127Z,95815
2018-03-03T04:35:47.484Z,95819
2018-03-03T04:38:15.854Z,95817
2018-03-03T04:40:44.163Z,95821
2018-03-03T04:43:12.487Z,95815
2018-03-03T04:45:40.801Z,95813
2018-03-03T04:48:09.178Z,95811
2018-03-03T04:50:37.563Z,95816
2018-03-03T04:53:05.913Z,95821
2018-03-03T04:55:34.302Z,95816
2018-03-03T04:58:02.714Z,95811
2018-03-03T05:17:25.289Z,95819
2018-03-03T05:20:13.588Z,95816
2018-03-03T05:22:47.010Z,95820
2018-03-03T05:25:21.289Z,95815
2018-03-03T05:31:08.250Z,95810
2018-03-03T05:47:19.215Z,95829
2018-03-03T05:49:53.440Z,95832
2018-03-03T05:52:38.671Z,95833
2018-03-03T06:08:46.274Z,95829
2018-03-03T06:11:14.634Z,95832
2018-03-03T06:13:43.002Z,95836
2018-03-03T06:16:11.352Z,95834
2018-03-03T06:18:39.701Z,95837
2018-03-03T06:21:08.065Z,95846
2018-03-03T06:23:36.406Z,95862
2018-03-03T06:26:04.724Z,95855
2018-03-03T06:28:33.033Z,95856
2018-03-03T06:31:01.362Z,95869
2018-03-03T06:33:29.765Z,95871
2018-03-03T06:35:58.096Z,95876
2018-03-03T06:38:26.395Z,95872
2018-03-03T06:40:54.716Z,95875
2018-03-03T06:43:23.082Z,95880
2018-03-03T06:45:51.434Z,95887
2018-03-03T06:48:19.741Z,95887
2018-03-03T06:50:48.087Z,95881
2018-03-03T06:53:16.417Z,95878
2018-03-03T06:55:44.753Z,95874
2018-03-03T06:58:14.003Z,95878
2018-03-03T07:00:42.368Z,95868
2018-03-03T07:03:10.773Z,95869
2018-03-03T07:05:39.072Z,95863
2018-03-03T07:08:07.447Z,95863
2018-03-03T07:10:35.779Z,95865
2018-03-03T07:13:04.151Z,95873
2018-03-03T07:15:33.448Z,95880
2018-03-03T07:18:01.867Z,95878
2018-03-03T07:20:30.247Z,95872
2018-03-03T07:22:58.626Z,95870
2018-03-03T07:25:26.942Z,95873
2018-03-03T07:27:55.281Z,95879
2018-03-03T07:30:23.590Z,95879
2018-03-03T07:32:51.922Z,95872
2018-03-03T07:35:20.269Z,95867
2018-03-03T07:37:48.622Z,95866
2018-03-03T07:40:16.944Z,95874
2018-03-03T07:42:45.264Z,95880
2018-03-03T07:45:13.604Z,95892
2018-03-03T07:47:41.991Z,95885
2018-03-03T07:50:10.374Z,95882
2018-03-03T07:52:38.727Z,95885
2018-03-03T07:55:07.101Z,95885
2018-03-03T07:57:35.461Z,95896
2018-03-03T08:00:03.797Z,95900
2018-03-03T08:02:32.293Z,95897
2018-03-03T08:05:00.679Z,95890
2018-03-03T08:07:29.032Z,95890
2018-03-03T08:09:57.459Z,95878
2018-03-03T08:12:26.095Z,95873
2018-03-03T08:14:54.451Z,95870
2018-03-03T08:17:22.845Z,95863
2018-03-03T08:19:51.201Z,95874
2018-03-03T08:22:19.722Z,95876
2018-03-03T08:24:48.233Z,95878
2018-03-03T08:27:16.634Z,95882
2018-03-03T08:29:44.967Z,95885
2018-03-03T08:32:13.470Z,95887
2018-03-03T08:34:41.793Z,95886
2018-03-03T08:37:10.196Z,95878
2018-03-03T08:39:38.597Z,95884
2018-03-03T08:42:06.930Z,95884
2018-03-03T08:44:35.262Z,95878
2018-03-03T08:47:03.595Z,95878
2018-03-03T08:49:32.060Z,95886
2018-03-03T08:52:00.390Z,95883
2018-03-03T08:54:28.710Z,95872
2018-03-03T08:56:57.027Z,95883
2018-03-03T08:59:25.371Z,95888
2018-03-03T09:01:53.790Z,95880
2018-03-03T09:04:22.148Z,95896
2018-03-03T09:06:50.496Z,95905
2018-03-03T09:09:18.898Z,95905
2018-03-03T09:11:47.229Z,95893
2018-03-03T09:14:15.605Z,95891
2018-03-03T09:16:43.947Z,95887
2018-03-03T09:19:12.304Z,95880
2018-03-03T09:21:40.644Z,95871
2018-03-03T09:24:08.974Z,95863
2018-03-03T09:26:37.322Z,95852
2018-03-03T09:29:05.665Z,95856
2018-03-03T09:31:33.984Z,95855
2018-03-03T09:34:02.389Z,95862
2018-03-03T09:36:30.774Z,95860
2018-03-03T09:38:59.224Z,95852
2018-03-03T09:41:27.604Z,95852
2018-03-03T09:43:56.051Z,95855
2018-03-03T09:46:24.435Z,95857
2018-03-03T09:48:52.758Z,95855
2018-03-03T09:51:21.107Z,95852
2018-03-03T09:53:49.454Z,95848
2018-03-03T09:56:17.797Z,95845
2018-03-03T09:58:46.163Z,95839
2018-03-03T10:01:14.576Z,95840
2018-03-03T10:03:42.945Z,95843
2018-03-03T10:06:11.324Z,95839
2018-03-03T10:08:39.658Z,95836
2018-03-03T10:11:08.122Z,95836
2018-03-03T10:13:36.547Z,95837
2018-03-03T10:16:04.919Z,95841
2018-03-03T10:18:33.360Z,95847
2018-03-03T10:21:01.783Z,95843
2018-03-03T10:23:30.162Z,95847
2018-03-03T10:25:58.543Z,95848
2018-03-03T10:28:26.926Z,95847
2018-03-03T10:30:55.325Z,95851
2018-03-03T10:33:24.316Z,95838
2018-03-03T10:35:52.645Z,95843
2018-03-03T10:38:21.080Z,95839
2018-03-03T10:40:49.414Z,95849
2018-03-03T10:43:17.747Z,95838
2018-03-03T10:45:46.107Z,95829
2018-03-03T10:48:14.429Z,95830
2018-03-03T10:50:42.835Z,95828
2018-03-03T10:53:11.366Z,95823
2018-03-03T10:55:39.730Z,95827
2018-03-03T10:58:08.107Z,95828
2018-03-03T11:00:36.556Z,95831
2018-03-03T11:03:04.953Z,95834
2018-03-03T11:05:33.455Z,95829
2018-03-03T11:08:02.186Z,95822
2018-03-03T11:10:30.553Z,95815
2018-03-03T11:12:58.932Z,95811
2018-03-03T11:15:27.312Z,95820
2018-03-03T11:17:55.697Z,95817
2018-03-03T11:20:24.043Z,95824
2018-03-03T11:22:52.406Z,95821
2018-03-03T11:25:20.797Z,95825
2018-03-03T11:27:49.141Z,95812
2018-03-03T11:30:17.522Z,95804
2018-03-03T11:32:45.872Z,95784
2018-03-03T11:35:14.230Z,95775
2018-03-03T11:37:42.611Z,95761
2018-03-03T11:40:11.059Z,95774
2018-03-03T11:42:39.567Z,95763
2018-03-03T11:45:07.917Z,95766
2018-03-03T11:47:36.266Z,95773
2018-03-03T11:50:04.625Z,95768
2018-03-03T11:52:33.076Z,95772
2018-03-03T11:55:01.544Z,95758
2018-03-03T11:57:29.914Z,95747
2018-03-03T11:59:58.259Z,95747
2018-03-03T12:02:26.662Z,95744
2018-03-03T12:04:55.015Z,95743
2018-03-03T12:07:23.373Z,95765
2018-03-03T12:09:51.711Z,95748
2018-03-03T12:12:20.071Z,95761
2018-03-03T12:14:48.432Z,95758
2018-03-03T12:17:16.818Z,95755
2018-03-03T12:19:45.225Z,95758
2018-03-03T12:22:13.576Z,95746
2018-03-03T12:24:41.994Z,95744
2018-03-03T12:27:10.411Z,95741
2018-03-03T12:29:38.723Z,95737
2018-03-03T12:32:07.123Z,95732
2018-03-03T12:34:35.509Z,95737
2018-03-03T12:37:03.850Z,95738
2018-03-03T12:39:32.246Z,95742
2018-03-03T12:42:00.581Z,95735
2018-03-03T12:44:28.948Z,95721
2018-03-03T12:46:57.319Z,95723
2018-03-03T12:49:25.651Z,95732
2018-03-03T12:51:53.975Z,95725
2018-03-03T12:54:22.356Z,95720
2018-03-03T12:56:50.769Z,95717
2018-03-03T12:59:19.229Z,95726
2018-03-03T13:01:47.526Z,95714
2018-03-03T13:04:15.880Z,95710
2018-03-03T13:06:44.318Z,95711
2018-03-03T13:09:12.644Z,95709
2018-03-03T13:11:41.035Z,95708
2018-03-03T13:14:09.413Z,95712
2018-03-03T13:16:37.779Z,95717
2018-03-03T13:19:06.958Z,95721
2018-03-03T13:21:35.346Z,95711
2018-03-03T13:24:03.754Z,95713
2018-03-03T13:26:32.125Z,95703
2018-03-03T13:29:00.436Z,95696
2018-03-03T13:31:28.796Z,95697
2018-03-03T13:33:57.141Z,95691
2018-03-03T13:36:25.481Z,95698
2018-03-03T13:38:53.826Z,95700
2018-03-03T13:41:22.202Z,95702
2018-03-03T13:43:50.583Z,95706
2018-03-03T13:46:18.931Z,95706
2018-03-03T13:48:47.298Z,95696
2018-03-03T13:51:15.667Z,95691
2018-03-03T13:53:43.982Z,95684
2018-03-03T13:56:12.368Z,95680
2018-03-03T13:58:40.816Z,95674
2018-03-03T14:01:09.175Z,95670
2018-03-03T14:03:37.602Z,95666
2018-03-03T14:06:05.965Z,95660
2018-03-03T14:08:34.331Z,95665
2018-03-03T14:11:02.706Z,95669
2018-03-03T14:13:31.048Z,95670
2018-03-03T14:15:59.433Z,95654
2018-03-03T14:18:27.873Z,95649
2018-03-03T14:20:56.273Z,95661
2018-03-03T14:23:24.658Z,95654
2018-03-03T14:25:53.100Z,95656
2018-03-03T14:28:21.599Z,95651
2018-03-03T14:30:50.200Z,95653
2018-03-03T14:33:18.568Z,95649
2018-03-03T14:35:46.914Z,95650
2018-03-03T14:38:15.266Z,95648
2018-03-03T14:40:43.648Z,95647
2018-03-03T14:43:12.071Z,95650
2018-03-03T14:45:40.395Z,95651
2018-03-03T14:48:08.765Z,95641
